Terminal Aerodrome Forecast
Issued by NWS

Home | Current Version | Previous Version | Text Only | Print | Product List | Glossary On
Versions: 1 2 3 4 5 6 7 8 9 10 11 12 13 14 15 16 17 18 19 20 21 22 23 24 25 26 27 28 29 30 31
000
FTUS45 KREV 230526
TAFTRK
TAF
KTRK 230526Z 2306/2406 VRB03KT P6SM VCSH SCT020 BKN035
      TEMPO 2306/2308 4SM -SHRA BR SCT010 BKN025
     FM231000 00000KT 2SM BR SCT020 BKN030
     FM231500 VRB04KT P6SM SCT008 BKN015
     FM231900 26007KT P6SM VCSH SCT020 BKN035
     FM240400 VRB04KT P6SM SCT015 BKN030=

USA.gov is the U.S. government's official web portal to all federal, state and local government web resources and services.